Time;durP1;ratioP1;P1;durP2;ratioP2;P2;SDS_P1;SDS_P2;PMS_P1;PMS_P2;Temp;Humidity;BMP_temperature;BMP_pressure;BME280_temperature;BME280_humidity;BME280_pressure;Samples;Min_cycle;Max_cycle;Signal;HPM_P1;HPM_P2
2023/04/12 00:02:19;;;;;;;3.08;2.78;;;;;;;;;;5075627;28;20666;-60
2023/04/12 00:04:54;;;;;;;2.60;2.35;;;;;;;;;;5075448;28;20280;-61
2023/04/12 00:07:21;;;;;;;2.47;2.28;;;;;;;;;;5075657;28;20192;-60
2023/04/12 00:09:49;;;;;;;6.18;2.60;;;;;;;;;;5075694;28;20246;-61
2023/04/12 00:12:18;;;;;;;4.13;2.10;;;;;;;;;;5075519;28;20217;-61
2023/04/12 00:14:45;;;;;;;2.95;2.38;;;;;;;;;;5075382;28;20197;-61
2023/04/12 00:17:12;;;;;;;3.40;1.98;;;;;;;;;;5074871;28;20196;-60
2023/04/12 00:19:40;;;;;;;1.90;1.80;;;;;;;;;;5074957;28;20218;-60
2023/04/12 00:22:07;;;;;;;2.25;1.60;;;;;;;;;;5074883;28;20279;-60
2023/04/12 00:24:34;;;;;;;1.95;1.63;;;;;;;;;;5074821;28;20193;-60
2023/04/12 00:27:04;;;;;;;2.10;1.80;;;;;;;;;;5074713;28;20225;-60
2023/04/12 00:29:31;;;;;;;1.63;1.50;;;;;;;;;;5074738;28;20222;-60
2023/04/12 00:32:00;;;;;;;2.38;2.08;;;;;;;;;;5074846;28;20629;-60
2023/04/12 00:34:27;;;;;;;3.10;1.50;;;;;;;;;;5074619;28;20194;-59
2023/04/12 00:36:54;;;;;;;3.20;1.73;;;;;;;;;;5074635;28;20193;-60
2023/04/12 00:39:21;;;;;;;1.70;1.60;;;;;;;;;;5074536;28;20479;-61
2023/04/12 00:41:48;;;;;;;1.70;1.60;;;;;;;;;;5074376;28;20197;-61
2023/04/12 00:44:16;;;;;;;2.00;1.80;;;;;;;;;;5074025;28;20279;-61
2023/04/12 00:46:44;;;;;;;4.70;2.50;;;;;;;;;;5074369;28;20456;-62
2023/04/12 00:49:12;;;;;;;1.75;1.50;;;;;;;;;;5074419;28;20288;-61
2023/04/12 00:51:40;;;;;;;4.07;1.77;;;;;;;;;;5074368;28;20190;-62
2023/04/12 00:54:07;;;;;;;3.43;2.20;;;;;;;;;;5074334;28;20190;-60
2023/04/12 00:56:35;;;;;;;3.05;1.50;;;;;;;;;;5074074;28;20784;-61
2023/04/12 00:59:02;;;;;;;1.83;1.70;;;;;;;;;;5073933;28;20200;-62
2023/04/12 01:01:31;;;;;;;2.37;2.17;;;;;;;;;;5073943;28;20687;-59
2023/04/12 01:04:00;;;;;;;1.73;1.63;;;;;;;;;;5074122;28;20451;-60
2023/04/12 01:06:34;;;;;;;1.70;1.60;;;;;;;;;;5073947;28;20229;-60
2023/04/12 01:09:04;;;;;;;3.25;2.33;;;;;;;;;;5073867;28;20223;-59
2023/04/12 01:11:33;;;;;;;2.53;2.10;;;;;;;;;;5073719;28;20221;-60
2023/04/12 01:14:15;;;;;;;2.88;1.85;;;;;;;;;;5073949;28;20284;-60
2023/04/12 01:16:44;;;;;;;2.38;1.80;;;;;;;;;;5073638;28;20711;-61
2023/04/12 01:19:20;;;;;;;4.30;1.75;;;;;;;;;;5073633;28;20218;-60
2023/04/12 01:21:54;;;;;;;1.90;1.80;;;;;;;;;;5073595;28;20217;-59
2023/04/12 01:24:27;;;;;;;3.47;1.70;;;;;;;;;;5073567;28;20193;-59
2023/04/12 01:26:59;;;;;;;1.90;1.80;;;;;;;;;;5073888;28;20194;-59
2023/04/12 01:29:28;;;;;;;2.58;1.95;;;;;;;;;;5073606;28;20563;-59
2023/04/12 01:31:58;;;;;;;1.95;1.85;;;;;;;;;;5073482;28;20234;-60
2023/04/12 01:34:27;;;;;;;1.70;1.60;;;;;;;;;;5073261;28;20192;-60
2023/04/12 01:36:55;;;;;;;5.25;2.20;;;;;;;;;;5073512;28;20222;-59
2023/04/12 01:39:22;;;;;;;6.55;1.90;;;;;;;;;;5073332;28;20209;-62
2023/04/12 01:41:49;;;;;;;2.20;2.00;;;;;;;;;;5073123;28;20196;-62
2023/04/12 01:44:16;;;;;;;4.25;1.90;;;;;;;;;;5072963;28;20217;-60
2023/04/12 01:46:45;;;;;;;1.90;1.70;;;;;;;;;;5073004;28;20722;-62
2023/04/12 01:49:12;;;;;;;2.85;2.00;;;;;;;;;;5073066;28;20190;-60
2023/04/12 01:51:42;;;;;;;4.22;1.98;;;;;;;;;;5073182;28;20280;-60
2023/04/12 01:54:12;;;;;;;2.45;2.00;;;;;;;;;;5073148;28;20287;-59
2023/04/12 01:56:40;;;;;;;2.42;1.90;;;;;;;;;;5072486;28;20279;-59
2023/04/12 01:59:08;;;;;;;3.13;1.95;;;;;;;;;;5072838;28;20232;-60
2023/04/12 02:01:35;;;;;;;3.78;2.10;;;;;;;;;;5072854;28;20189;-60
2023/04/12 02:04:05;;;;;;;3.95;1.88;;;;;;;;;;5073072;28;20215;-60
2023/04/12 02:06:34;;;;;;;2.63;1.98;;;;;;;;;;5073014;28;20196;-60
2023/04/12 02:09:02;;;;;;;9.27;1.92;;;;;;;;;;5072663;28;20710;-60
2023/04/12 02:11:29;;;;;;;6.60;2.13;;;;;;;;;;5072742;28;20221;-60
2023/04/12 02:13:56;;;;;;;2.10;1.88;;;;;;;;;;5072691;28;20248;-60
2023/04/12 02:16:23;;;;;;;3.58;1.70;;;;;;;;;;5072836;28;20190;-60
2023/04/12 02:18:50;;;;;;;2.22;2.13;;;;;;;;;;5072845;28;20217;-60
2023/04/12 02:21:20;;;;;;;1.60;1.50;;;;;;;;;;5072490;28;20676;-60
2023/04/12 02:23:47;;;;;;;6.07;2.15;;;;;;;;;;5072709;28;20284;-61
2023/04/12 02:26:14;;;;;;;1.85;1.67;;;;;;;;;;5072555;28;20555;-60
2023/04/12 02:28:41;;;;;;;2.15;1.95;;;;;;;;;;5072724;28;20618;-60
2023/04/12 02:31:08;;;;;;;2.55;1.92;;;;;;;;;;5072649;28;20189;-60
2023/04/12 02:33:35;;;;;;;2.20;2.00;;;;;;;;;;5072619;28;20293;-60
2023/04/12 02:36:02;;;;;;;2.50;1.95;;;;;;;;;;5072517;28;20273;-60
2023/04/12 02:38:30;;;;;;;4.07;2.10;;;;;;;;;;5072402;28;20275;-60
2023/04/12 02:40:57;;;;;;;2.50;1.85;;;;;;;;;;5072253;28;20217;-60
2023/04/12 02:43:24;;;;;;;5.07;2.20;;;;;;;;;;5072312;28;20316;-60
2023/04/12 02:45:51;;;;;;;2.03;1.85;;;;;;;;;;5072497;28;20197;-60
2023/04/12 02:48:18;;;;;;;3.15;2.85;;;;;;;;;;5072406;28;20188;-60
2023/04/12 02:50:45;;;;;;;3.03;1.92;;;;;;;;;;5072312;28;20288;-60
2023/04/12 02:53:12;;;;;;;2.70;2.50;;;;;;;;;;5072228;28;20537;-60
2023/04/12 02:55:40;;;;;;;4.95;2.10;;;;;;;;;;5072078;28;20200;-60
2023/04/12 02:58:07;;;;;;;2.25;2.05;;;;;;;;;;5072254;28;20287;-60
2023/04/12 03:00:34;;;;;;;2.15;1.90;;;;;;;;;;5072218;28;20217;-60
2023/04/12 03:03:02;;;;;;;2.35;1.85;;;;;;;;;;5072276;28;20193;-60
2023/04/12 03:05:29;;;;;;;7.25;1.90;;;;;;;;;;5072094;28;20196;-61
2023/04/12 03:07:56;;;;;;;1.98;1.88;;;;;;;;;;5072808;28;20186;-60
2023/04/12 03:10:23;;;;;;;4.95;1.80;;;;;;;;;;5076069;28;20200;-60
2023/04/12 03:12:51;;;;;;;2.30;1.67;;;;;;;;;;5076000;28;20706;-61
2023/04/12 03:15:19;;;;;;;1.98;1.80;;;;;;;;;;5075986;28;20192;-61
2023/04/12 03:17:46;;;;;;;2.85;2.15;;;;;;;;;;5075957;28;20236;-60
2023/04/12 03:20:13;;;;;;;4.28;2.95;;;;;;;;;;5075948;28;20222;-61
2023/04/12 03:22:40;;;;;;;1.85;1.67;;;;;;;;;;5075940;28;20193;-60
2023/04/12 03:25:08;;;;;;;4.22;2.50;;;;;;;;;;5076126;28;20185;-60
2023/04/12 03:27:35;;;;;;;2.88;1.98;;;;;;;;;;5076047;28;20200;-60
2023/04/12 03:30:05;;;;;;;2.78;2.05;;;;;;;;;;5075790;28;20741;-60
2023/04/12 03:32:32;;;;;;;18.42;3.60;;;;;;;;;;5075746;28;20193;-61
2023/04/12 03:34:59;;;;;;;3.60;2.55;;;;;;;;;;5075664;28;20284;-60
2023/04/12 03:37:26;;;;;;;3.70;2.13;;;;;;;;;;5075550;28;20197;-60
2023/04/12 03:39:53;;;;;;;1.98;1.80;;;;;;;;;;5075697;28;20186;-61
2023/04/12 03:42:20;;;;;;;3.08;2.42;;;;;;;;;;5075655;28;20194;-61
2023/04/12 03:44:47;;;;;;;2.20;2.00;;;;;;;;;;5075286;28;20315;-61
2023/04/12 03:47:15;;;;;;;6.07;2.28;;;;;;;;;;5075650;28;20199;-61
2023/04/12 03:49:43;;;;;;;4.10;2.55;;;;;;;;;;5075499;28;20196;-62
2023/04/12 03:52:10;;;;;;;2.88;2.28;;;;;;;;;;5075911;28;20283;-61
2023/04/12 03:54:37;;;;;;;3.35;2.25;;;;;;;;;;5075627;28;20188;-60
2023/04/12 03:57:04;;;;;;;4.72;2.33;;;;;;;;;;5075406;28;20192;-61
2023/04/12 03:59:31;;;;;;;3.60;2.47;;;;;;;;;;5075442;28;20219;-60
2023/04/12 04:01:58;;;;;;;8.10;2.75;;;;;;;;;;5075100;28;20220;-60
2023/04/12 04:04:27;;;;;;;5.25;2.53;;;;;;;;;;5074970;28;20203;-61
2023/04/12 04:06:55;;;;;;;2.53;2.33;;;;;;;;;;5075160;28;20623;-60
2023/04/12 04:09:22;;;;;;;2.97;2.17;;;;;;;;;;5075289;28;20626;-61
2023/04/12 04:11:50;;;;;;;3.08;2.78;;;;;;;;;;5075195;28;20200;-61
2023/04/12 04:14:17;;;;;;;10.13;3.03;;;;;;;;;;5075050;28;20221;-60
2023/04/12 04:16:44;;;;;;;5.53;2.50;;;;;;;;;;5074909;28;20195;-60
2023/04/12 04:19:11;;;;;;;2.35;2.15;;;;;;;;;;5074678;28;20743;-61
2023/04/12 04:21:39;;;;;;;4.00;2.60;;;;;;;;;;5074967;28;20224;-60
2023/04/12 04:24:08;;;;;;;4.28;2.40;;;;;;;;;;5074850;28;20192;-60
2023/04/12 04:26:37;;;;;;;2.80;2.60;;;;;;;;;;5074785;28;20189;-61
2023/04/12 04:29:04;;;;;;;3.65;2.55;;;;;;;;;;5074795;28;20771;-60
2023/04/12 04:31:35;;;;;;;2.50;2.30;;;;;;;;;;5074524;28;20200;-61
2023/04/12 04:34:04;;;;;;;4.85;2.60;;;;;;;;;;5074704;28;20562;-60
2023/04/12 04:36:33;;;;;;;8.68;2.85;;;;;;;;;;5074573;28;20205;-61
2023/04/12 04:39:02;;;;;;;7.35;3.58;;;;;;;;;;5074533;28;20192;-61
2023/04/12 04:41:33;;;;;;;7.00;5.32;;;;;;;;;;5074453;28;20668;-61
2023/04/12 04:44:00;;;;;;;10.77;7.63;;;;;;;;;;5074158;28;20221;-61
2023/04/12 04:46:29;;;;;;;13.65;9.50;;;;;;;;;;5074636;28;20193;-60
2023/04/12 04:48:57;;;;;;;13.65;7.65;;;;;;;;;;5074515;28;20192;-60
2023/04/12 04:51:24;;;;;;;9.45;6.63;;;;;;;;;;5074364;28;20617;-60
2023/04/12 04:53:51;;;;;;;12.70;6.80;;;;;;;;;;5074258;28;20195;-61
2023/04/12 04:56:21;;;;;;;7.05;5.45;;;;;;;;;;5074147;28;20275;-60
2023/04/12 04:58:48;;;;;;;9.43;5.38;;;;;;;;;;5074451;28;20553;-60
2023/04/12 05:01:16;;;;;;;6.78;5.95;;;;;;;;;;5074235;28;20591;-60
2023/04/12 05:03:43;;;;;;;13.63;6.90;;;;;;;;;;5074233;28;20196;-61
2023/04/12 05:06:10;;;;;;;10.05;7.15;;;;;;;;;;5074001;28;20220;-60
2023/04/12 05:08:37;;;;;;;8.25;5.78;;;;;;;;;;5073850;28;20639;-60
2023/04/12 05:11:05;;;;;;;5.47;4.60;;;;;;;;;;5073764;28;20583;-60
2023/04/12 05:13:33;;;;;;;6.82;4.40;;;;;;;;;;5074050;28;20193;-60
2023/04/12 05:16:00;;;;;;;7.13;4.65;;;;;;;;;;5073873;28;20272;-60
2023/04/12 05:18:27;;;;;;;6.10;3.72;;;;;;;;;;5073863;28;20199;-60
2023/04/12 05:20:54;;;;;;;4.88;4.15;;;;;;;;;;5073669;28;20296;-60
2023/04/12 05:23:21;;;;;;;5.63;4.88;;;;;;;;;;5073504;28;20283;-61
2023/04/12 05:25:48;;;;;;;3.60;3.30;;;;;;;;;;5073750;28;20574;-60
2023/04/12 05:28:16;;;;;;;5.20;3.80;;;;;;;;;;5073625;28;20196;-60
2023/04/12 05:30:45;;;;;;;12.35;4.00;;;;;;;;;;5072834;28;20220;-61
2023/04/12 05:33:12;;;;;;;4.25;3.63;;;;;;;;;;5073472;28;20195;-61
2023/04/12 05:35:39;;;;;;;4.75;4.25;;;;;;;;;;5073353;28;20193;-61
2023/04/12 05:38:06;;;;;;;3.70;3.40;;;;;;;;;;5073228;28;20192;-61
2023/04/12 05:40:35;;;;;;;3.40;3.10;;;;;;;;;;5073412;28;20598;-61
2023/04/12 05:43:02;;;;;;;7.15;4.45;;;;;;;;;;5073161;28;20197;-61
2023/04/12 05:45:29;;;;;;;7.15;4.18;;;;;;;;;;5073239;28;20226;-60
2023/04/12 05:47:57;;;;;;;5.35;3.95;;;;;;;;;;5073184;28;20208;-60
2023/04/12 05:50:24;;;;;;;4.65;3.70;;;;;;;;;;5072844;28;20269;-61
2023/04/12 05:52:52;;;;;;;4.75;4.25;;;;;;;;;;5072989;28;20193;-61
2023/04/12 05:55:20;;;;;;;5.13;3.88;;;;;;;;;;5073045;28;20285;-61
2023/04/12 05:57:47;;;;;;;4.65;3.45;;;;;;;;;;5073024;28;20284;-60
2023/04/12 06:00:17;;;;;;;4.90;3.50;;;;;;;;;;5072965;28;20189;-61
2023/04/12 06:02:44;;;;;;;4.32;3.97;;;;;;;;;;5072670;28;20205;-60
2023/04/12 06:05:13;;;;;;;4.20;3.90;;;;;;;;;;5072727;28;20193;-61
2023/04/12 06:07:40;;;;;;;7.57;6.05;;;;;;;;;;5072904;28;20524;-60
2023/04/12 06:10:08;;;;;;;7.72;6.63;;;;;;;;;;5072878;28;20199;-60
2023/04/12 06:12:35;;;;;;;7.13;5.80;;;;;;;;;;5072739;28;20194;-61
2023/04/12 06:15:02;;;;;;;6.30;4.13;;;;;;;;;;5072697;28;20189;-61
2023/04/12 06:17:29;;;;;;;5.00;4.50;;;;;;;;;;5072656;28;20276;-60
2023/04/12 06:19:56;;;;;;;4.72;4.13;;;;;;;;;;5072865;28;20197;-61
2023/04/12 06:22:25;;;;;;;6.43;5.32;;;;;;;;;;5072666;28;20263;-61
2023/04/12 06:24:52;;;;;;;11.27;6.38;;;;;;;;;;5072429;28;20217;-61
2023/04/12 06:27:21;;;;;;;18.03;4.50;;;;;;;;;;5072345;28;20649;-61
2023/04/12 06:29:48;;;;;;;3.50;3.10;;;;;;;;;;5072473;28;20516;-61
2023/04/12 06:32:15;;;;;;;4.80;3.42;;;;;;;;;;5072304;28;20495;-61
2023/04/12 06:34:42;;;;;;;3.37;3.13;;;;;;;;;;5072567;28;20221;-61
2023/04/12 06:37:09;;;;;;;4.00;3.60;;;;;;;;;;5072692;28;20451;-61
2023/04/12 06:39:37;;;;;;;3.77;3.33;;;;;;;;;;5072524;28;20193;-61
2023/04/12 06:42:04;;;;;;;3.00;2.70;;;;;;;;;;5072408;28;20959;-61
2023/04/12 06:44:32;;;;;;;3.27;2.97;;;;;;;;;;5072414;28;20471;-61
2023/04/12 06:46:59;;;;;;;5.32;3.20;;;;;;;;;;5072416;28;20543;-61
2023/04/12 06:49:26;;;;;;;3.57;3.27;;;;;;;;;;5072582;28;20216;-60
2023/04/12 06:51:53;;;;;;;6.50;2.60;;;;;;;;;;5072604;28;20497;-60
2023/04/12 06:54:20;;;;;;;3.20;2.87;;;;;;;;;;5072475;28;20543;-61
2023/04/12 06:56:48;;;;;;;6.17;3.27;;;;;;;;;;5072233;28;20490;-61
2023/04/12 06:59:15;;;;;;;3.43;2.60;;;;;;;;;;5065660;28;20452;-61
2023/04/12 07:01:42;;;;;;;7.07;2.83;;;;;;;;;;5065084;28;20487;-61
2023/04/12 07:04:09;;;;;;;2.60;2.37;;;;;;;;;;5071014;28;20467;-62
2023/04/12 07:06:36;;;;;;;2.97;2.67;;;;;;;;;;5072132;28;20467;-60
2023/04/12 07:09:04;;;;;;;4.83;2.67;;;;;;;;;;5071848;28;20538;-59
2023/04/12 07:11:31;;;;;;;4.80;2.43;;;;;;;;;;5072026;28;20450;-59
2023/04/12 07:13:59;;;;;;;2.73;2.53;;;;;;;;;;5071841;28;20938;-59
2023/04/12 07:16:26;;;;;;;2.80;2.23;;;;;;;;;;5072295;28;20474;-60
2023/04/12 07:18:53;;;;;;;3.80;2.07;;;;;;;;;;5072487;28;20598;-60
2023/04/12 07:21:20;;;;;;;6.10;2.10;;;;;;;;;;5072099;28;20884;-60
2023/04/12 07:23:49;;;;;;;3.03;2.10;;;;;;;;;;5072272;28;20910;-61
2023/04/12 07:26:17;;;;;;;5.70;3.67;;;;;;;;;;5071981;28;20792;-61
2023/04/12 07:28:44;;;;;;;6.37;1.90;;;;;;;;;;5072450;28;20448;-63
2023/04/12 07:31:12;;;;;;;4.07;1.63;;;;;;;;;;5072176;28;20460;-60
2023/04/12 07:33:39;;;;;;;2.93;1.53;;;;;;;;;;5072325;28;20479;-60
2023/04/12 07:36:07;;;;;;;4.03;2.00;;;;;;;;;;5071712;28;20899;-58
2023/04/12 07:38:34;;;;;;;2.20;1.70;;;;;;;;;;5072081;28;20491;-59
2023/04/12 07:41:01;;;;;;;2.27;1.70;;;;;;;;;;5071980;28;20456;-58
2023/04/12 07:43:28;;;;;;;3.90;1.60;;;;;;;;;;5071787;28;20478;-54
2023/04/12 07:45:55;;;;;;;5.97;2.20;;;;;;;;;;5072144;28;20484;-57
2023/04/12 07:48:23;;;;;;;4.73;1.50;;;;;;;;;;5072069;28;20451;-60
2023/04/12 07:50:50;;;;;;;2.70;1.83;;;;;;;;;;5072005;28;20452;-61
2023/04/12 07:53:18;;;;;;;2.80;1.30;;;;;;;;;;5071961;28;20454;-59
2023/04/12 07:55:45;;;;;;;2.87;1.60;;;;;;;;;;5075194;28;20538;-60
2023/04/12 07:58:12;;;;;;;8.10;3.90;;;;;;;;;;5075324;28;20483;-61
2023/04/12 08:00:39;;;;;;;3.23;1.77;;;;;;;;;;5075528;28;20455;-61
2023/04/12 08:03:06;;;;;;;1.20;1.10;;;;;;;;;;5075308;28;20577;-61
2023/04/12 08:05:34;;;;;;;3.37;1.40;;;;;;;;;;5075899;28;20947;-60
2023/04/12 08:08:01;;;;;;;2.07;1.00;;;;;;;;;;5075154;28;20856;-62
2023/04/12 08:10:29;;;;;;;1.50;1.20;;;;;;;;;;5075283;28;20508;-61
2023/04/12 08:12:56;;;;;;;1.67;1.50;;;;;;;;;;5075372;28;20459;-61
2023/04/12 08:15:23;;;;;;;1.30;1.20;;;;;;;;;;5075153;28;20539;-59
2023/04/12 08:17:50;;;;;;;3.33;1.50;;;;;;;;;;5075032;28;20811;-62
2023/04/12 08:20:17;;;;;;;4.67;1.60;;;;;;;;;;5075014;28;20452;-59
2023/04/12 08:22:46;;;;;;;1.20;1.10;;;;;;;;;;5075006;28;20483;-59
2023/04/12 08:25:13;;;;;;;3.43;1.27;;;;;;;;;;5075094;28;20863;-61
2023/04/12 08:27:42;;;;;;;3.97;1.60;;;;;;;;;;5074984;28;20542;-59
2023/04/12 08:30:09;;;;;;;3.70;1.20;;;;;;;;;;5074768;28;20765;-59
2023/04/12 08:32:37;;;;;;;2.20;1.10;;;;;;;;;;5074877;28;20539;-60
2023/04/12 08:35:04;;;;;;;1.57;1.33;;;;;;;;;;5074962;28;20459;-60
2023/04/12 08:37:31;;;;;;;3.70;1.23;;;;;;;;;;5074850;28;20936;-61
2023/04/12 08:40:00;;;;;;;4.40;1.10;;;;;;;;;;5075024;28;20444;-59
2023/04/12 08:42:27;;;;;;;3.20;1.10;;;;;;;;;;5074976;28;20480;-59
2023/04/12 08:44:55;;;;;;;3.30;1.33;;;;;;;;;;5074690;28;21075;-65
2023/04/12 08:47:23;;;;;;;3.23;1.30;;;;;;;;;;5074828;28;20804;-60
2023/04/12 08:49:50;;;;;;;2.57;1.20;;;;;;;;;;5074738;28;20882;-60
2023/04/12 08:52:17;;;;;;;2.70;1.60;;;;;;;;;;5075148;28;20451;-59
2023/04/12 08:54:44;;;;;;;7.47;2.00;;;;;;;;;;5074822;28;20444;-60
2023/04/12 08:57:13;;;;;;;1.97;1.10;;;;;;;;;;5074824;28;20448;-61
2023/04/12 08:59:42;;;;;;;1.53;1.37;;;;;;;;;;5074576;28;20811;-60
2023/04/12 09:02:10;;;;;;;10.63;2.47;;;;;;;;;;5074428;28;20574;-61
2023/04/12 09:04:48;;;;;;;2.50;1.00;;;;;;;;;;5074281;28;20462;-61
2023/04/12 09:07:15;;;;;;;3.00;1.63;;;;;;;;;;5074523;28;20444;-58
2023/04/12 09:09:42;;;;;;;2.07;1.27;;;;;;;;;;5074378;28;20448;-59
2023/04/12 09:12:09;;;;;;;2.50;1.00;;;;;;;;;;5074166;28;20483;-59
2023/04/12 09:14:38;;;;;;;7.00;1.43;;;;;;;;;;5074239;28;20781;-59
2023/04/12 09:17:05;;;;;;;6.90;2.70;;;;;;;;;;5074323;28;20489;-60
2023/04/12 09:19:32;;;;;;;2.63;1.33;;;;;;;;;;5074318;28;20444;-60
2023/04/12 09:22:00;;;;;;;4.60;1.13;;;;;;;;;;5073917;28;20503;-61
2023/04/12 09:24:27;;;;;;;2.20;0.83;;;;;;;;;;5074226;28;20448;-60
2023/04/12 09:27:02;;;;;;;4.20;1.27;;;;;;;;;;5073916;28;20877;-60
2023/04/12 09:29:29;;;;;;;2.43;1.00;;;;;;;;;;5073943;28;20447;-60
2023/04/12 09:32:00;;;;;;;2.43;1.57;;;;;;;;;;5073888;28;20539;-60
2023/04/12 09:34:27;;;;;;;4.47;1.30;;;;;;;;;;5073811;28;20960;-58
2023/04/12 09:36:54;;;;;;;2.80;1.63;;;;;;;;;;5074059;28;20517;-59
2023/04/12 09:39:30;;;;;;;2.13;1.40;;;;;;;;;;5073525;28;20930;-58
2023/04/12 09:42:04;;;;;;;2.63;1.33;;;;;;;;;;5073375;28;20548;-58
2023/04/12 09:44:33;;;;;;;1.40;0.90;;;;;;;;;;5073551;28;20868;-58
2023/04/12 09:47:03;;;;;;;2.23;1.20;;;;;;;;;;5055580;28;20964;-59
2023/04/12 09:49:36;;;;;;;3.13;1.30;;;;;;;;;;5053337;28;20511;-60
2023/04/12 09:52:03;;;;;;;2.50;1.67;;;;;;;;;;5053242;28;20479;-60
2023/04/12 09:54:32;;;;;;;8.10;1.63;;;;;;;;;;5053478;28;20506;-60
2023/04/12 09:56:59;;;;;;;5.43;2.10;;;;;;;;;;5053465;28;20445;-59
2023/04/12 09:59:28;;;;;;;4.13;1.23;;;;;;;;;;5053461;28;20448;-58
2023/04/12 10:01:56;;;;;;;3.63;1.50;;;;;;;;;;5053219;28;20480;-59
2023/04/12 10:04:24;;;;;;;2.80;1.30;;;;;;;;;;5053282;28;20510;-59
2023/04/12 10:06:51;;;;;;;4.83;1.73;;;;;;;;;;5053181;28;20492;-60
2023/04/12 10:09:18;;;;;;;3.37;1.37;;;;;;;;;;5053424;28;20507;-59
2023/04/12 10:11:46;;;;;;;3.40;1.40;;;;;;;;;;5053324;28;20464;-58
2023/04/12 10:14:13;;;;;;;3.73;1.30;;;;;;;;;;5053126;28;20449;-63
2023/04/12 10:16:41;;;;;;;1.20;1.03;;;;;;;;;;5053131;28;20449;-63
2023/04/12 10:19:09;;;;;;;3.43;1.20;;;;;;;;;;5053026;28;20459;-61
2023/04/12 10:21:38;;;;;;;2.73;1.37;;;;;;;;;;5052955;28;20455;-59
2023/04/12 10:24:06;;;;;;;3.00;1.20;;;;;;;;;;5052761;28;20510;-60
2023/04/12 10:26:33;;;;;;;1.63;1.27;;;;;;;;;;5052803;28;20453;-60
2023/04/12 10:29:18;;;;;;;5.73;1.63;;;;;;;;;;5052910;28;20974;-61
2023/04/12 10:31:45;;;;;;;2.70;1.10;;;;;;;;;;5052756;28;20451;-60
2023/04/12 10:34:12;;;;;;;2.70;1.40;;;;;;;;;;5052870;28;20459;-60
2023/04/12 10:36:53;;;;;;;3.13;1.40;;;;;;;;;;5052910;28;20451;-57
2023/04/12 10:39:35;;;;;;;3.90;2.00;;;;;;;;;;5052700;28;20535;-60
2023/04/12 10:42:18;;;;;;;3.53;2.30;;;;;;;;;;5052793;28;20473;-60
2023/04/12 10:44:45;;;;;;;5.43;2.30;;;;;;;;;;5052506;28;20468;-61
2023/04/12 10:47:12;;;;;;;2.40;1.30;;;;;;;;;;5052673;28;20511;-60
2023/04/12 10:49:39;;;;;;;2.40;1.70;;;;;;;;;;5052473;28;20952;-60
2023/04/12 10:52:14;;;;;;;2.83;1.20;;;;;;;;;;5052707;28;20455;-60
2023/04/12 10:54:42;;;;;;;4.17;1.50;;;;;;;;;;5053283;28;20781;-60
2023/04/12 10:57:29;;;;;;;5.23;1.53;;;;;;;;;;5072667;28;20517;-60
2023/04/12 10:59:58;;;;;;;3.43;1.27;;;;;;;;;;5072267;28;20531;-60
2023/04/12 11:02:25;;;;;;;2.20;1.20;;;;;;;;;;5072564;28;20517;-60
2023/04/12 11:05:07;;;;;;;2.70;1.70;;;;;;;;;;5072292;28;20448;-60
2023/04/12 11:07:40;;;;;;;1.90;1.50;;;;;;;;;;5072163;28;20478;-61
2023/04/12 11:10:13;;;;;;;1.63;1.37;;;;;;;;;;5072601;28;20456;-61
2023/04/12 11:12:41;;;;;;;3.67;1.50;;;;;;;;;;5072459;28;20634;-60
2023/04/12 11:15:12;;;;;;;3.87;1.40;;;;;;;;;;5072538;28;20447;-61
2023/04/12 11:17:39;;;;;;;2.80;1.20;;;;;;;;;;5072339;28;20452;-63
2023/04/12 11:20:10;;;;;;;2.67;1.50;;;;;;;;;;5072617;28;20471;-62
2023/04/12 11:22:39;;;;;;;4.80;1.07;;;;;;;;;;5072772;28;20802;-61
2023/04/12 11:25:06;;;;;;;3.77;1.40;;;;;;;;;;5072553;28;20449;-61
2023/04/12 11:27:36;;;;;;;2.40;1.13;;;;;;;;;;5072365;28;20965;-60
2023/04/12 11:30:03;;;;;;;1.77;1.20;;;;;;;;;;5074961;28;20448;-62
2023/04/12 11:32:34;;;;;;;3.20;1.40;;;;;;;;;;5076497;28;20453;-62
2023/04/12 11:35:01;;;;;;;2.77;1.20;;;;;;;;;;5076456;28;20463;-63
2023/04/12 11:37:28;;;;;;;1.43;1.20;;;;;;;;;;5076028;28;20464;-60
2023/04/12 11:39:57;;;;;;;2.00;1.23;;;;;;;;;;5076335;28;20509;-61
2023/04/12 11:42:25;;;;;;;2.80;1.67;;;;;;;;;;5075929;28;20507;-62
2023/04/12 11:44:52;;;;;;;2.50;1.40;;;;;;;;;;5075746;28;20489;-61
2023/04/12 11:47:20;;;;;;;3.57;1.40;;;;;;;;;;5076002;28;20449;-61
2023/04/12 11:49:49;;;;;;;2.83;1.23;;;;;;;;;;5076059;28;20543;-62
2023/04/12 11:52:17;;;;;;;3.00;1.60;;;;;;;;;;5075957;28;20456;-61
2023/04/12 11:54:45;;;;;;;2.50;1.33;;;;;;;;;;5075782;28;20548;-61
2023/04/12 11:57:13;;;;;;;1.43;1.20;;;;;;;;;;5075684;28;20506;-62
2023/04/12 11:59:40;;;;;;;10.07;1.90;;;;;;;;;;5075866;28;20450;-61
2023/04/12 12:02:09;;;;;;;2.73;0.90;;;;;;;;;;5075536;28;20452;-58
2023/04/12 12:04:36;;;;;;;1.60;1.20;;;;;;;;;;5075637;28;20576;-61
2023/04/12 12:07:05;;;;;;;2.33;1.30;;;;;;;;;;5075636;28;20499;-61
2023/04/12 12:09:32;;;;;;;3.63;1.37;;;;;;;;;;5075577;28;20449;-58
2023/04/12 12:12:00;;;;;;;3.30;1.10;;;;;;;;;;5075318;28;20486;-64
2023/04/12 12:14:28;;;;;;;1.90;1.37;;;;;;;;;;5075488;28;20515;-59
2023/04/12 12:16:55;;;;;;;4.53;1.37;;;;;;;;;;5075370;28;20499;-59
2023/04/12 12:19:29;;;;;;;2.57;1.30;;;;;;;;;;5075417;28;20449;-61
2023/04/12 12:22:06;;;;;;;2.70;1.17;;;;;;;;;;5075348;28;20788;-59
2023/04/12 12:24:33;;;;;;;5.70;2.00;;;;;;;;;;5074892;28;20479;-58
2023/04/12 12:27:02;;;;;;;3.73;1.20;;;;;;;;;;5075222;28;20466;-58
2023/04/12 12:29:35;;;;;;;6.03;1.37;;;;;;;;;;5075171;28;20818;-58
2023/04/12 12:32:05;;;;;;;3.57;1.40;;;;;;;;;;5075187;28;20449;-60
2023/04/12 12:34:33;;;;;;;2.60;1.50;;;;;;;;;;5075240;28;20477;-60
2023/04/12 12:37:00;;;;;;;2.40;1.00;;;;;;;;;;5074916;28;21060;-61
2023/04/12 12:39:29;;;;;;;4.93;1.40;;;;;;;;;;5074834;28;20454;-60
2023/04/12 12:41:56;;;;;;;5.93;1.60;;;;;;;;;;5075330;28;20450;-59
2023/04/12 12:44:23;;;;;;;2.70;1.20;;;;;;;;;;5074804;28;20568;-57
2023/04/12 12:46:51;;;;;;;2.90;1.50;;;;;;;;;;5074878;28;20450;-57
2023/04/12 12:49:18;;;;;;;1.77;1.03;;;;;;;;;;5074814;28;20457;-60
2023/04/12 12:51:45;;;;;;;3.30;1.33;;;;;;;;;;5075025;28;20555;-60
2023/04/12 12:54:12;;;;;;;2.17;1.27;;;;;;;;;;5074937;28;20947;-60
2023/04/12 12:56:40;;;;;;;2.87;1.23;;;;;;;;;;5074781;28;20817;-60
2023/04/12 12:59:07;;;;;;;1.37;1.10;;;;;;;;;;5074678;28;20831;-60
2023/04/12 13:01:34;;;;;;;2.33;1.40;;;;;;;;;;5074662;28;20540;-60
2023/04/12 13:04:01;;;;;;;2.27;1.20;;;;;;;;;;5074284;28;20512;-60
2023/04/12 13:06:28;;;;;;;3.07;1.43;;;;;;;;;;5074771;28;20834;-60
2023/04/12 13:08:55;;;;;;;1.40;1.03;;;;;;;;;;5074695;28;20543;-60
2023/04/12 13:11:22;;;;;;;1.70;1.20;;;;;;;;;;5074608;28;20495;-59
2023/04/12 13:13:50;;;;;;;1.90;1.00;;;;;;;;;;5074507;28;20457;-60
2023/04/12 13:16:17;;;;;;;2.10;1.73;;;;;;;;;;5074507;28;20880;-60
2023/04/12 13:18:44;;;;;;;2.30;1.50;;;;;;;;;;5074411;28;20451;-59
2023/04/12 13:21:11;;;;;;;2.23;1.33;;;;;;;;;;5074217;28;20453;-60
2023/04/12 13:23:38;;;;;;;3.23;1.47;;;;;;;;;;5074236;28;21074;-60
2023/04/12 13:26:06;;;;;;;4.60;1.57;;;;;;;;;;5074024;28;20445;-60
2023/04/12 13:28:33;;;;;;;3.13;1.20;;;;;;;;;;5074096;28;20533;-60
2023/04/12 13:31:01;;;;;;;1.93;1.10;;;;;;;;;;5073880;28;20543;-60
2023/04/12 13:33:28;;;;;;;3.37;1.17;;;;;;;;;;5074062;28;20816;-60
2023/04/12 13:35:55;;;;;;;2.70;0.97;;;;;;;;;;5073829;28;20539;-60
2023/04/12 13:38:22;;;;;;;6.80;1.10;;;;;;;;;;5073720;28;20450;-60
2023/04/12 13:40:49;;;;;;;3.10;1.10;;;;;;;;;;5073741;28;20481;-60
2023/04/12 13:43:16;;;;;;;1.80;0.90;;;;;;;;;;5073375;28;20477;-60
2023/04/12 13:45:43;;;;;;;2.90;1.97;;;;;;;;;;5073511;28;20457;-59
2023/04/12 13:48:11;;;;;;;2.60;1.30;;;;;;;;;;5073588;28;20453;-59
2023/04/12 13:50:38;;;;;;;1.33;1.10;;;;;;;;;;5073511;28;20555;-59
2023/04/12 13:53:05;;;;;;;1.37;1.20;;;;;;;;;;5072798;28;20887;-59
2023/04/12 13:55:32;;;;;;;1.17;1.00;;;;;;;;;;5073310;28;20454;-59
2023/04/12 13:58:00;;;;;;;2.20;1.27;;;;;;;;;;5073216;28;20605;-58
2023/04/12 14:00:27;;;;;;;4.33;1.27;;;;;;;;;;5072996;28;20448;-58
2023/04/12 14:02:54;;;;;;;2.20;1.10;;;;;;;;;;5073138;28;20560;-59
2023/04/12 14:05:22;;;;;;;1.43;1.10;;;;;;;;;;5073344;28;20449;-58
2023/04/12 14:07:51;;;;;;;1.83;1.20;;;;;;;;;;5073169;28;20623;-58
2023/04/12 14:10:18;;;;;;;4.67;1.50;;;;;;;;;;5073072;28;20495;-58
2023/04/12 14:12:45;;;;;;;4.23;1.00;;;;;;;;;;5072906;28;20840;-58
2023/04/12 14:15:12;;;;;;;3.30;1.30;;;;;;;;;;5073051;28;20451;-58
2023/04/12 14:17:39;;;;;;;3.33;1.27;;;;;;;;;;5073123;28;20536;-59
2023/04/12 14:20:09;;;;;;;1.53;1.30;;;;;;;;;;5072860;28;20457;-58
2023/04/12 14:22:37;;;;;;;1.17;1.00;;;;;;;;;;5073019;28;20867;-58
2023/04/12 14:25:04;;;;;;;2.07;1.00;;;;;;;;;;5072740;28;20597;-59
2023/04/12 14:27:31;;;;;;;2.20;1.33;;;;;;;;;;5073016;28;20532;-58
2023/04/12 14:29:58;;;;;;;2.93;1.13;;;;;;;;;;5073018;28;20523;-58
2023/04/12 14:32:25;;;;;;;1.83;1.07;;;;;;;;;;5072729;28;20540;-58
2023/04/12 14:34:52;;;;;;;1.47;1.33;;;;;;;;;;5072929;28;20457;-59
2023/04/12 14:37:19;;;;;;;1.30;1.13;;;;;;;;;;5072740;28;20540;-58
2023/04/12 14:39:48;;;;;;;1.37;0.90;;;;;;;;;;5072704;28;20998;-58
2023/04/12 14:42:15;;;;;;;1.70;1.27;;;;;;;;;;5072858;28;20555;-59
2023/04/12 14:44:41;;;;;;;2.60;1.17;;;;;;;;;;5072517;28;20497;-59
2023/04/12 14:47:08;;;;;;;2.90;1.20;;;;;;;;;;5072630;28;20450;-58
2023/04/12 14:49:35;;;;;;;4.07;1.30;;;;;;;;;;5072672;28;20880;-58